sensor_id;sensor_type;location;lat;lon;timestamp;temperature;humidity
16825;DHT22;8529;48.108;-1.706;2022-07-04T00:01:28;15.60;99.20
16825;DHT22;8529;48.108;-1.706;2022-07-04T00:03:55;15.70;99.30
16825;DHT22;8529;48.108;-1.706;2022-07-04T00:06:23;15.60;99.30
16825;DHT22;8529;48.108;-1.706;2022-07-04T00:08:50;15.60;99.40
16825;DHT22;8529;48.108;-1.706;2022-07-04T00:11:17;15.60;99.40
16825;DHT22;8529;48.108;-1.706;2022-07-04T00:13:44;15.60;99.30
16825;DHT22;8529;48.108;-1.706;2022-07-04T00:16:11;15.50;99.40
16825;DHT22;8529;48.108;-1.706;2022-07-04T00:18:39;15.50;99.50
16825;DHT22;8529;48.108;-1.706;2022-07-04T00:21:06;15.40;99.60
16825;DHT22;8529;48.108;-1.706;2022-07-04T00:23:33;15.40;99.60
16825;DHT22;8529;48.108;-1.706;2022-07-04T00:26:00;15.40;99.70
16825;DHT22;8529;48.108;-1.706;2022-07-04T00:28:27;15.40;99.80
16825;DHT22;8529;48.108;-1.706;2022-07-04T00:30:54;15.40;99.90
16825;DHT22;8529;48.108;-1.706;2022-07-04T00:33:21;15.30;99.90
16825;DHT22;8529;48.108;-1.706;2022-07-04T00:35:49;15.30;99.90
16825;DHT22;8529;48.108;-1.706;2022-07-04T00:38:16;15.30;99.90
16825;DHT22;8529;48.108;-1.706;2022-07-04T00:40:43;15.30;99.90
16825;DHT22;8529;48.108;-1.706;2022-07-04T00:43:10;15.30;99.90
16825;DHT22;8529;48.108;-1.706;2022-07-04T00:45:37;15.30;99.90
16825;DHT22;8529;48.108;-1.706;2022-07-04T00:48:04;15.20;99.90
16825;DHT22;8529;48.108;-1.706;2022-07-04T00:50:31;15.30;99.90
16825;DHT22;8529;48.108;-1.706;2022-07-04T00:53:00;15.30;99.90
16825;DHT22;8529;48.108;-1.706;2022-07-04T00:55:27;15.20;99.90
16825;DHT22;8529;48.108;-1.706;2022-07-04T00:57:55;15.30;99.90
16825;DHT22;8529;48.108;-1.706;2022-07-04T01:00:22;15.30;99.90
16825;DHT22;8529;48.108;-1.706;2022-07-04T01:02:49;15.20;99.90
16825;DHT22;8529;48.108;-1.706;2022-07-04T01:05:16;15.20;99.90
16825;DHT22;8529;48.108;-1.706;2022-07-04T01:07:43;15.20;99.90
16825;DHT22;8529;48.108;-1.706;2022-07-04T01:10:11;15.20;99.90
16825;DHT22;8529;48.108;-1.706;2022-07-04T01:12:38;15.20;99.90
16825;DHT22;8529;48.108;-1.706;2022-07-04T01:15:07;15.20;99.90
16825;DHT22;8529;48.108;-1.706;2022-07-04T01:17:34;15.20;99.90
16825;DHT22;8529;48.108;-1.706;2022-07-04T01:20:02;15.20;99.90
16825;DHT22;8529;48.108;-1.706;2022-07-04T01:22:31;15.20;99.90
16825;DHT22;8529;48.108;-1.706;2022-07-04T01:24:57;15.20;99.90
16825;DHT22;8529;48.108;-1.706;2022-07-04T01:27:24;15.10;99.90
16825;DHT22;8529;48.108;-1.706;2022-07-04T01:29:51;15.10;99.90
16825;DHT22;8529;48.108;-1.706;2022-07-04T01:32:18;15.10;99.90
16825;DHT22;8529;48.108;-1.706;2022-07-04T01:34:45;15.10;99.90
16825;DHT22;8529;48.108;-1.706;2022-07-04T01:37:12;15.10;99.90
16825;DHT22;8529;48.108;-1.706;2022-07-04T01:39:41;15.00;99.90
16825;DHT22;8529;48.108;-1.706;2022-07-04T01:42:08;15.00;99.90
16825;DHT22;8529;48.108;-1.706;2022-07-04T01:44:35;15.00;99.90
16825;DHT22;8529;48.108;-1.706;2022-07-04T01:47:02;15.00;99.90
16825;DHT22;8529;48.108;-1.706;2022-07-04T01:49:31;15.00;99.90
16825;DHT22;8529;48.108;-1.706;2022-07-04T01:51:57;15.00;99.90
16825;DHT22;8529;48.108;-1.706;2022-07-04T01:54:24;15.00;99.90
16825;DHT22;8529;48.108;-1.706;2022-07-04T01:56:53;15.00;99.90
16825;DHT22;8529;48.108;-1.706;2022-07-04T01:59:20;15.00;99.90
16825;DHT22;8529;48.108;-1.706;2022-07-04T02:02:08;15.00;99.90
16825;DHT22;8529;48.108;-1.706;2022-07-04T02:04:34;15.00;99.90
16825;DHT22;8529;48.108;-1.706;2022-07-04T02:07:01;15.10;99.90
16825;DHT22;8529;48.108;-1.706;2022-07-04T02:09:28;15.10;99.90
16825;DHT22;8529;48.108;-1.706;2022-07-04T02:11:57;15.10;99.90
16825;DHT22;8529;48.108;-1.706;2022-07-04T02:14:42;15.10;99.90
16825;DHT22;8529;48.108;-1.706;2022-07-04T02:17:09;15.10;99.90
16825;DHT22;8529;48.108;-1.706;2022-07-04T02:19:36;15.10;99.90
16825;DHT22;8529;48.108;-1.706;2022-07-04T02:22:04;15.10;99.90
16825;DHT22;8529;48.108;-1.706;2022-07-04T02:24:31;15.10;99.90
16825;DHT22;8529;48.108;-1.706;2022-07-04T02:26:59;15.00;99.90
16825;DHT22;8529;48.108;-1.706;2022-07-04T02:29:26;15.00;99.90
16825;DHT22;8529;48.108;-1.706;2022-07-04T02:31:53;15.00;99.90
16825;DHT22;8529;48.108;-1.706;2022-07-04T02:34:20;15.00;99.90
16825;DHT22;8529;48.108;-1.706;2022-07-04T02:36:47;15.00;99.90
16825;DHT22;8529;48.108;-1.706;2022-07-04T02:39:14;14.90;99.90
16825;DHT22;8529;48.108;-1.706;2022-07-04T02:41:41;14.90;99.90
16825;DHT22;8529;48.108;-1.706;2022-07-04T02:44:09;14.90;99.90
16825;DHT22;8529;48.108;-1.706;2022-07-04T02:46:36;14.90;99.90
16825;DHT22;8529;48.108;-1.706;2022-07-04T02:49:04;14.90;99.90
16825;DHT22;8529;48.108;-1.706;2022-07-04T02:51:31;14.90;99.90
16825;DHT22;8529;48.108;-1.706;2022-07-04T02:53:58;14.90;99.90
16825;DHT22;8529;48.108;-1.706;2022-07-04T02:56:25;14.80;99.90
16825;DHT22;8529;48.108;-1.706;2022-07-04T02:58:53;14.80;99.90
16825;DHT22;8529;48.108;-1.706;2022-07-04T03:01:21;14.80;99.90
16825;DHT22;8529;48.108;-1.706;2022-07-04T03:03:48;14.80;99.90
16825;DHT22;8529;48.108;-1.706;2022-07-04T03:06:15;14.80;99.90
16825;DHT22;8529;48.108;-1.706;2022-07-04T03:08:42;14.80;99.90
16825;DHT22;8529;48.108;-1.706;2022-07-04T03:11:09;14.70;99.90
16825;DHT22;8529;48.108;-1.706;2022-07-04T03:13:37;14.70;99.90
16825;DHT22;8529;48.108;-1.706;2022-07-04T03:16:04;14.70;99.90
16825;DHT22;8529;48.108;-1.706;2022-07-04T03:18:33;14.60;99.90
16825;DHT22;8529;48.108;-1.706;2022-07-04T03:21:00;14.60;99.90
16825;DHT22;8529;48.108;-1.706;2022-07-04T03:23:29;14.60;99.90
16825;DHT22;8529;48.108;-1.706;2022-07-04T03:25:56;14.60;99.90
16825;DHT22;8529;48.108;-1.706;2022-07-04T03:28:23;14.60;99.90
16825;DHT22;8529;48.108;-1.706;2022-07-04T03:30:50;14.50;99.90
16825;DHT22;8529;48.108;-1.706;2022-07-04T03:33:17;14.50;99.90
16825;DHT22;8529;48.108;-1.706;2022-07-04T03:35:46;14.40;99.90
16825;DHT22;8529;48.108;-1.706;2022-07-04T03:38:12;14.30;99.90
16825;DHT22;8529;48.108;-1.706;2022-07-04T03:40:39;14.30;99.90
16825;DHT22;8529;48.108;-1.706;2022-07-04T03:43:06;14.30;99.90
16825;DHT22;8529;48.108;-1.706;2022-07-04T03:45:33;14.30;99.90
16825;DHT22;8529;48.108;-1.706;2022-07-04T03:48:00;14.30;99.90
16825;DHT22;8529;48.108;-1.706;2022-07-04T03:50:28;14.20;99.90
16825;DHT22;8529;48.108;-1.706;2022-07-04T03:52:57;14.20;99.90
16825;DHT22;8529;48.108;-1.706;2022-07-04T03:55:24;14.10;99.90
16825;DHT22;8529;48.108;-1.706;2022-07-04T03:57:51;14.10;99.90
16825;DHT22;8529;48.108;-1.706;2022-07-04T04:00:18;14.20;99.90
16825;DHT22;8529;48.108;-1.706;2022-07-04T04:02:44;14.20;99.90
16825;DHT22;8529;48.108;-1.706;2022-07-04T04:05:11;14.30;99.90
16825;DHT22;8529;48.108;-1.706;2022-07-04T04:07:54;14.20;99.90
16825;DHT22;8529;48.108;-1.706;2022-07-04T04:10:22;14.20;99.90
16825;DHT22;8529;48.108;-1.706;2022-07-04T04:12:49;14.10;99.90
16825;DHT22;8529;48.108;-1.706;2022-07-04T04:15:17;14.00;99.90
16825;DHT22;8529;48.108;-1.706;2022-07-04T04:17:44;13.90;99.90
16825;DHT22;8529;48.108;-1.706;2022-07-04T04:20:11;13.80;99.90
16825;DHT22;8529;48.108;-1.706;2022-07-04T04:22:38;13.80;99.90
16825;DHT22;8529;48.108;-1.706;2022-07-04T04:25:06;13.80;99.90
16825;DHT22;8529;48.108;-1.706;2022-07-04T04:27:34;13.90;99.90
16825;DHT22;8529;48.108;-1.706;2022-07-04T04:30:01;13.80;99.90
16825;DHT22;8529;48.108;-1.706;2022-07-04T04:32:28;13.80;99.90
16825;DHT22;8529;48.108;-1.706;2022-07-04T04:34:55;13.90;99.90
16825;DHT22;8529;48.108;-1.706;2022-07-04T04:37:23;13.90;99.90
16825;DHT22;8529;48.108;-1.706;2022-07-04T04:39:50;14.00;99.90
16825;DHT22;8529;48.108;-1.706;2022-07-04T04:42:17;14.00;99.90
16825;DHT22;8529;48.108;-1.706;2022-07-04T04:44:45;14.00;99.90
16825;DHT22;8529;48.108;-1.706;2022-07-04T04:47:12;14.10;99.90
16825;DHT22;8529;48.108;-1.706;2022-07-04T04:49:39;14.10;99.90
16825;DHT22;8529;48.108;-1.706;2022-07-04T04:52:06;14.10;99.90
16825;DHT22;8529;48.108;-1.706;2022-07-04T04:54:33;14.10;99.90
16825;DHT22;8529;48.108;-1.706;2022-07-04T04:57:00;14.10;99.90
16825;DHT22;8529;48.108;-1.706;2022-07-04T04:59:28;14.10;99.90
16825;DHT22;8529;48.108;-1.706;2022-07-04T05:01:57;14.10;99.90
16825;DHT22;8529;48.108;-1.706;2022-07-04T05:04:24;14.20;99.90
16825;DHT22;8529;48.108;-1.706;2022-07-04T05:06:51;14.20;99.90
16825;DHT22;8529;48.108;-1.706;2022-07-04T05:09:18;14.30;99.90
16825;DHT22;8529;48.108;-1.706;2022-07-04T05:11:46;14.30;99.90
16825;DHT22;8529;48.108;-1.706;2022-07-04T05:14:13;14.40;99.90
16825;DHT22;8529;48.108;-1.706;2022-07-04T05:16:40;14.40;99.90
16825;DHT22;8529;48.108;-1.706;2022-07-04T05:19:08;14.40;99.90
16825;DHT22;8529;48.108;-1.706;2022-07-04T05:21:35;14.40;99.90
16825;DHT22;8529;48.108;-1.706;2022-07-04T05:24:02;14.40;99.90
16825;DHT22;8529;48.108;-1.706;2022-07-04T05:26:29;14.50;99.90
16825;DHT22;8529;48.108;-1.706;2022-07-04T05:28:56;14.50;99.90
16825;DHT22;8529;48.108;-1.706;2022-07-04T05:31:23;14.60;99.90
16825;DHT22;8529;48.108;-1.706;2022-07-04T05:33:50;14.60;99.90
16825;DHT22;8529;48.108;-1.706;2022-07-04T05:36:19;14.60;99.90
16825;DHT22;8529;48.108;-1.706;2022-07-04T05:38:46;14.60;99.90
16825;DHT22;8529;48.108;-1.706;2022-07-04T05:41:13;14.70;99.90
16825;DHT22;8529;48.108;-1.706;2022-07-04T05:43:40;14.70;99.90
16825;DHT22;8529;48.108;-1.706;2022-07-04T05:46:07;14.60;99.90
16825;DHT22;8529;48.108;-1.706;2022-07-04T05:48:34;14.60;99.90
16825;DHT22;8529;48.108;-1.706;2022-07-04T05:51:02;14.60;99.90
16825;DHT22;8529;48.108;-1.706;2022-07-04T05:53:30;14.60;99.90
16825;DHT22;8529;48.108;-1.706;2022-07-04T05:55:57;14.60;99.90
16825;DHT22;8529;48.108;-1.706;2022-07-04T05:58:24;14.70;99.90
16825;DHT22;8529;48.108;-1.706;2022-07-04T06:00:51;14.80;99.90
16825;DHT22;8529;48.108;-1.706;2022-07-04T06:03:18;15.00;99.90
16825;DHT22;8529;48.108;-1.706;2022-07-04T06:05:45;15.10;99.90
16825;DHT22;8529;48.108;-1.706;2022-07-04T06:08:12;15.10;99.90
16825;DHT22;8529;48.108;-1.706;2022-07-04T06:10:40;15.20;99.90
16825;DHT22;8529;48.108;-1.706;2022-07-04T06:13:07;15.30;99.90
16825;DHT22;8529;48.108;-1.706;2022-07-04T06:15:34;15.40;99.90
16825;DHT22;8529;48.108;-1.706;2022-07-04T06:18:01;15.50;99.90
16825;DHT22;8529;48.108;-1.706;2022-07-04T06:20:28;15.60;99.90
16825;DHT22;8529;48.108;-1.706;2022-07-04T06:22:56;15.60;99.90
16825;DHT22;8529;48.108;-1.706;2022-07-04T06:25:22;15.70;99.90
16825;DHT22;8529;48.108;-1.706;2022-07-04T06:27:51;15.70;99.90
16825;DHT22;8529;48.108;-1.706;2022-07-04T06:30:18;15.80;99.90
16825;DHT22;8529;48.108;-1.706;2022-07-04T06:32:48;15.90;99.90
16825;DHT22;8529;48.108;-1.706;2022-07-04T06:35:19;16.00;99.90
16825;DHT22;8529;48.108;-1.706;2022-07-04T06:38:04;16.10;99.90
16825;DHT22;8529;48.108;-1.706;2022-07-04T06:40:30;16.20;99.90
16825;DHT22;8529;48.108;-1.706;2022-07-04T06:42:59;16.30;99.90
16825;DHT22;8529;48.108;-1.706;2022-07-04T06:45:26;16.40;99.90
16825;DHT22;8529;48.108;-1.706;2022-07-04T06:47:53;16.50;99.90
16825;DHT22;8529;48.108;-1.706;2022-07-04T06:50:20;16.60;99.90
16825;DHT22;8529;48.108;-1.706;2022-07-04T06:52:47;16.60;99.90
16825;DHT22;8529;48.108;-1.706;2022-07-04T06:55:14;16.60;99.90
16825;DHT22;8529;48.108;-1.706;2022-07-04T06:57:44;16.70;99.90
16825;DHT22;8529;48.108;-1.706;2022-07-04T07:00:13;16.70;99.90
16825;DHT22;8529;48.108;-1.706;2022-07-04T07:02:40;16.70;99.90
16825;DHT22;8529;48.108;-1.706;2022-07-04T07:05:07;16.80;99.90
16825;DHT22;8529;48.108;-1.706;2022-07-04T07:07:34;16.80;99.90
16825;DHT22;8529;48.108;-1.706;2022-07-04T07:10:02;16.80;99.90
16825;DHT22;8529;48.108;-1.706;2022-07-04T07:12:32;16.70;99.90
16825;DHT22;8529;48.108;-1.706;2022-07-04T07:14:59;16.70;99.90
16825;DHT22;8529;48.108;-1.706;2022-07-04T07:17:28;16.70;99.90
16825;DHT22;8529;48.108;-1.706;2022-07-04T07:19:55;16.70;99.90
16825;DHT22;8529;48.108;-1.706;2022-07-04T07:22:23;16.60;99.90
16825;DHT22;8529;48.108;-1.706;2022-07-04T07:24:50;16.60;99.90
16825;DHT22;8529;48.108;-1.706;2022-07-04T07:27:17;16.60;99.90
16825;DHT22;8529;48.108;-1.706;2022-07-04T07:29:44;16.60;99.90
16825;DHT22;8529;48.108;-1.706;2022-07-04T07:32:10;16.70;99.90
16825;DHT22;8529;48.108;-1.706;2022-07-04T07:34:39;16.70;99.90
16825;DHT22;8529;48.108;-1.706;2022-07-04T07:37:06;16.70;99.90
16825;DHT22;8529;48.108;-1.706;2022-07-04T07:39:33;16.70;99.90
16825;DHT22;8529;48.108;-1.706;2022-07-04T07:42:00;16.80;99.90
16825;DHT22;8529;48.108;-1.706;2022-07-04T07:44:27;16.80;99.90
16825;DHT22;8529;48.108;-1.706;2022-07-04T07:46:54;16.80;99.90
16825;DHT22;8529;48.108;-1.706;2022-07-04T07:49:21;16.90;99.90
16825;DHT22;8529;48.108;-1.706;2022-07-04T07:51:50;16.90;99.90
16825;DHT22;8529;48.108;-1.706;2022-07-04T07:54:16;16.90;99.90
16825;DHT22;8529;48.108;-1.706;2022-07-04T07:56:44;17.00;99.90
16825;DHT22;8529;48.108;-1.706;2022-07-04T07:59:11;17.00;99.90
16825;DHT22;8529;48.108;-1.706;2022-07-04T08:01:38;17.10;99.90
16825;DHT22;8529;48.108;-1.706;2022-07-04T08:04:05;17.10;99.90
16825;DHT22;8529;48.108;-1.706;2022-07-04T08:06:51;17.10;99.90
16825;DHT22;8529;48.108;-1.706;2022-07-04T08:09:18;17.20;99.90
16825;DHT22;8529;48.108;-1.706;2022-07-04T08:11:45;17.20;99.90
16825;DHT22;8529;48.108;-1.706;2022-07-04T08:14:12;17.30;99.90
16825;DHT22;8529;48.108;-1.706;2022-07-04T08:16:39;17.30;99.90
16825;DHT22;8529;48.108;-1.706;2022-07-04T08:19:06;17.30;99.90
16825;DHT22;8529;48.108;-1.706;2022-07-04T08:21:33;17.40;99.90
16825;DHT22;8529;48.108;-1.706;2022-07-04T08:24:02;17.40;99.90
16825;DHT22;8529;48.108;-1.706;2022-07-04T08:26:29;17.50;99.90
16825;DHT22;8529;48.108;-1.706;2022-07-04T08:28:56;17.50;99.90
16825;DHT22;8529;48.108;-1.706;2022-07-04T08:31:25;17.50;99.90
16825;DHT22;8529;48.108;-1.706;2022-07-04T08:33:52;17.50;99.90
16825;DHT22;8529;48.108;-1.706;2022-07-04T08:36:19;17.50;99.90
16825;DHT22;8529;48.108;-1.706;2022-07-04T08:38:46;17.60;99.90
16825;DHT22;8529;48.108;-1.706;2022-07-04T08:41:15;17.60;99.90
16825;DHT22;8529;48.108;-1.706;2022-07-04T08:43:43;17.60;99.90
16825;DHT22;8529;48.108;-1.706;2022-07-04T08:46:11;17.70;99.90
16825;DHT22;8529;48.108;-1.706;2022-07-04T08:48:42;17.70;99.90
16825;DHT22;8529;48.108;-1.706;2022-07-04T08:51:14;17.80;99.90
16825;DHT22;8529;48.108;-1.706;2022-07-04T08:53:47;17.90;99.90
16825;DHT22;8529;48.108;-1.706;2022-07-04T08:56:19;17.90;99.90
16825;DHT22;8529;48.108;-1.706;2022-07-04T08:59:04;18.00;99.90
16825;DHT22;8529;48.108;-1.706;2022-07-04T09:01:32;18.00;99.90
16825;DHT22;8529;48.108;-1.706;2022-07-04T09:04:00;18.10;99.60
16825;DHT22;8529;48.108;-1.706;2022-07-04T09:06:27;18.10;99.40
16825;DHT22;8529;48.108;-1.706;2022-07-04T09:08:55;18.10;99.30
16825;DHT22;8529;48.108;-1.706;2022-07-04T09:11:23;18.10;99.40
16825;DHT22;8529;48.108;-1.706;2022-07-04T09:13:50;18.20;99.30
16825;DHT22;8529;48.108;-1.706;2022-07-04T09:16:17;18.30;98.90
16825;DHT22;8529;48.108;-1.706;2022-07-04T09:18:44;18.40;98.20
16825;DHT22;8529;48.108;-1.706;2022-07-04T09:21:11;18.30;98.00
16825;DHT22;8529;48.108;-1.706;2022-07-04T09:23:40;18.30;97.90
16825;DHT22;8529;48.108;-1.706;2022-07-04T09:26:13;18.30;98.40
16825;DHT22;8529;48.108;-1.706;2022-07-04T09:28:43;18.50;98.40
16825;DHT22;8529;48.108;-1.706;2022-07-04T09:31:17;18.70;98.30
16825;DHT22;8529;48.108;-1.706;2022-07-04T09:33:50;19.10;97.90
16825;DHT22;8529;48.108;-1.706;2022-07-04T09:36:19;19.30;97.30
16825;DHT22;8529;48.108;-1.706;2022-07-04T09:39:04;19.60;97.10
16825;DHT22;8529;48.108;-1.706;2022-07-04T09:41:32;19.80;96.80
16825;DHT22;8529;48.108;-1.706;2022-07-04T09:44:17;19.90;96.50
16825;DHT22;8529;48.108;-1.706;2022-07-04T09:46:44;20.00;96.10
16825;DHT22;8529;48.108;-1.706;2022-07-04T09:49:11;20.00;96.00
16825;DHT22;8529;48.108;-1.706;2022-07-04T09:51:40;20.10;96.00
16825;DHT22;8529;48.108;-1.706;2022-07-04T09:54:19;20.20;95.60
16825;DHT22;8529;48.108;-1.706;2022-07-04T09:56:48;20.30;95.80
16825;DHT22;8529;48.108;-1.706;2022-07-04T09:59:18;20.30;95.40
16825;DHT22;8529;48.108;-1.706;2022-07-04T10:01:45;20.40;94.70
16825;DHT22;8529;48.108;-1.706;2022-07-04T10:04:12;20.50;94.40
16825;DHT22;8529;48.108;-1.706;2022-07-04T10:06:41;20.40;94.30
16825;DHT22;8529;48.108;-1.706;2022-07-04T10:09:10;20.40;94.40
16825;DHT22;8529;48.108;-1.706;2022-07-04T10:11:38;20.30;95.10
16825;DHT22;8529;48.108;-1.706;2022-07-04T10:14:06;20.40;94.60
16825;DHT22;8529;48.108;-1.706;2022-07-04T10:16:35;20.40;94.60
16825;DHT22;8529;48.108;-1.706;2022-07-04T10:19:03;20.30;94.90
16825;DHT22;8529;48.108;-1.706;2022-07-04T10:21:30;20.40;94.60
16825;DHT22;8529;48.108;-1.706;2022-07-04T10:23:58;20.40;94.90
16825;DHT22;8529;48.108;-1.706;2022-07-04T10:26:26;20.50;94.40
16825;DHT22;8529;48.108;-1.706;2022-07-04T10:28:54;20.60;94.10
16825;DHT22;8529;48.108;-1.706;2022-07-04T10:31:22;20.60;94.40
16825;DHT22;8529;48.108;-1.706;2022-07-04T10:33:52;20.70;94.30
16825;DHT22;8529;48.108;-1.706;2022-07-04T10:36:22;20.90;94.20
16825;DHT22;8529;48.108;-1.706;2022-07-04T10:38:50;21.00;94.10
16825;DHT22;8529;48.108;-1.706;2022-07-04T10:41:18;21.00;94.20
16825;DHT22;8529;48.108;-1.706;2022-07-04T10:43:58;21.10;94.10
16825;DHT22;8529;48.108;-1.706;2022-07-04T10:46:47;21.10;94.20
16825;DHT22;8529;48.108;-1.706;2022-07-04T10:49:27;21.20;93.80
16825;DHT22;8529;48.108;-1.706;2022-07-04T10:51:57;21.20;93.80
16825;DHT22;8529;48.108;-1.706;2022-07-04T10:54:35;21.20;93.90
16825;DHT22;8529;48.108;-1.706;2022-07-04T10:57:10;21.10;93.60
16825;DHT22;8529;48.108;-1.706;2022-07-04T10:59:38;21.10;93.90
16825;DHT22;8529;48.108;-1.706;2022-07-04T11:02:28;21.10;93.70
16825;DHT22;8529;48.108;-1.706;2022-07-04T11:05:02;21.20;93.50
16825;DHT22;8529;48.108;-1.706;2022-07-04T11:10:32;21.30;92.60
16825;DHT22;8529;48.108;-1.706;2022-07-04T11:13:16;21.40;92.30
16825;DHT22;8529;48.108;-1.706;2022-07-04T11:16:01;21.30;92.30
16825;DHT22;8529;48.108;-1.706;2022-07-04T11:18:28;21.40;92.40
16825;DHT22;8529;48.108;-1.706;2022-07-04T11:20:57;21.30;92.80
16825;DHT22;8529;48.108;-1.706;2022-07-04T11:23:24;21.20;93.10
16825;DHT22;8529;48.108;-1.706;2022-07-04T11:25:51;21.20;93.00
16825;DHT22;8529;48.108;-1.706;2022-07-04T11:28:23;21.10;93.00
16825;DHT22;8529;48.108;-1.706;2022-07-04T11:30:50;21.10;93.10
16825;DHT22;8529;48.108;-1.706;2022-07-04T11:33:18;21.00;93.20
16825;DHT22;8529;48.108;-1.706;2022-07-04T11:38:55;21.00;93.00
16825;DHT22;8529;48.108;-1.706;2022-07-04T11:41:26;20.90;93.30
16825;DHT22;8529;48.108;-1.706;2022-07-04T11:44:12;20.90;93.50
16825;DHT22;8529;48.108;-1.706;2022-07-04T11:47:08;20.90;93.50
16825;DHT22;8529;48.108;-1.706;2022-07-04T11:49:44;21.00;93.50
16825;DHT22;8529;48.108;-1.706;2022-07-04T11:52:12;21.00;93.20
16825;DHT22;8529;48.108;-1.706;2022-07-04T11:54:41;21.10;93.70
16825;DHT22;8529;48.108;-1.706;2022-07-04T11:57:20;21.10;93.40
16825;DHT22;8529;48.108;-1.706;2022-07-04T11:59:55;21.20;93.30
16825;DHT22;8529;48.108;-1.706;2022-07-04T12:02:23;21.20;93.10
16825;DHT22;8529;48.108;-1.706;2022-07-04T12:04:50;21.20;92.80
16825;DHT22;8529;48.108;-1.706;2022-07-04T12:07:19;21.30;92.80
16825;DHT22;8529;48.108;-1.706;2022-07-04T12:09:48;21.50;91.60
16825;DHT22;8529;48.108;-1.706;2022-07-04T12:12:15;21.60;91.40
16825;DHT22;8529;48.108;-1.706;2022-07-04T12:14:58;21.60;91.40
16825;DHT22;8529;48.108;-1.706;2022-07-04T12:17:30;21.70;91.60
16825;DHT22;8529;48.108;-1.706;2022-07-04T12:19:59;21.70;91.50
16825;DHT22;8529;48.108;-1.706;2022-07-04T12:22:32;21.80;91.30
16825;DHT22;8529;48.108;-1.706;2022-07-04T12:25:00;21.70;91.40
16825;DHT22;8529;48.108;-1.706;2022-07-04T12:27:28;21.70;91.90
16825;DHT22;8529;48.108;-1.706;2022-07-04T12:29:58;21.80;92.10
16825;DHT22;8529;48.108;-1.706;2022-07-04T12:32:44;21.90;92.10
16825;DHT22;8529;48.108;-1.706;2022-07-04T12:35:32;21.90;91.80
16825;DHT22;8529;48.108;-1.706;2022-07-04T12:38:03;21.80;91.50
16825;DHT22;8529;48.108;-1.706;2022-07-04T12:40:32;21.80;91.00
16825;DHT22;8529;48.108;-1.706;2022-07-04T12:42:59;21.80;91.30
16825;DHT22;8529;48.108;-1.706;2022-07-04T12:45:44;21.90;91.20
16825;DHT22;8529;48.108;-1.706;2022-07-04T12:48:19;22.00;91.20
16825;DHT22;8529;48.108;-1.706;2022-07-04T12:50:46;22.00;90.70
16825;DHT22;8529;48.108;-1.706;2022-07-04T12:53:14;22.00;90.40
16825;DHT22;8529;48.108;-1.706;2022-07-04T12:55:43;22.00;90.80
16825;DHT22;8529;48.108;-1.706;2022-07-04T12:58:11;22.00;90.20
16825;DHT22;8529;48.108;-1.706;2022-07-04T13:00:39;22.00;90.60
16825;DHT22;8529;48.108;-1.706;2022-07-04T13:03:07;22.00;90.10
16825;DHT22;8529;48.108;-1.706;2022-07-04T13:05:34;22.00;90.00
16825;DHT22;8529;48.108;-1.706;2022-07-04T13:08:03;22.00;90.10
16825;DHT22;8529;48.108;-1.706;2022-07-04T13:10:30;21.90;90.30
16825;DHT22;8529;48.108;-1.706;2022-07-04T13:12:59;21.90;90.50
16825;DHT22;8529;48.108;-1.706;2022-07-04T13:15:26;21.80;90.70
16825;DHT22;8529;48.108;-1.706;2022-07-04T13:17:53;21.80;90.50
16825;DHT22;8529;48.108;-1.706;2022-07-04T13:20:20;21.80;90.70
16825;DHT22;8529;48.108;-1.706;2022-07-04T13:22:47;21.80;90.20
16825;DHT22;8529;48.108;-1.706;2022-07-04T13:25:14;21.80;90.40
16825;DHT22;8529;48.108;-1.706;2022-07-04T13:27:42;21.80;89.80
16825;DHT22;8529;48.108;-1.706;2022-07-04T13:30:11;21.80;90.30
16825;DHT22;8529;48.108;-1.706;2022-07-04T13:32:38;21.70;90.20
16825;DHT22;8529;48.108;-1.706;2022-07-04T13:35:06;21.70;90.20
16825;DHT22;8529;48.108;-1.706;2022-07-04T13:37:33;21.60;89.40
16825;DHT22;8529;48.108;-1.706;2022-07-04T13:40:00;21.60;89.50
16825;DHT22;8529;48.108;-1.706;2022-07-04T13:42:26;21.70;88.60
16825;DHT22;8529;48.108;-1.706;2022-07-04T13:45:12;21.70;88.40
16825;DHT22;8529;48.108;-1.706;2022-07-04T13:47:41;21.70;89.00
16825;DHT22;8529;48.108;-1.706;2022-07-04T13:50:09;21.60;88.50
16825;DHT22;8529;48.108;-1.706;2022-07-04T13:52:36;21.60;88.40
16825;DHT22;8529;48.108;-1.706;2022-07-04T13:55:03;21.50;89.00
16825;DHT22;8529;48.108;-1.706;2022-07-04T13:57:31;21.50;89.50
16825;DHT22;8529;48.108;-1.706;2022-07-04T13:59:58;21.50;89.40
16825;DHT22;8529;48.108;-1.706;2022-07-04T14:02:26;21.50;88.40
16825;DHT22;8529;48.108;-1.706;2022-07-04T14:04:53;21.50;89.00
16825;DHT22;8529;48.108;-1.706;2022-07-04T14:07:20;21.50;89.10
16825;DHT22;8529;48.108;-1.706;2022-07-04T14:09:47;21.50;89.30
16825;DHT22;8529;48.108;-1.706;2022-07-04T14:12:15;21.50;88.20
16825;DHT22;8529;48.108;-1.706;2022-07-04T14:14:42;21.50;88.00
16825;DHT22;8529;48.108;-1.706;2022-07-04T14:17:09;21.50;88.20
16825;DHT22;8529;48.108;-1.706;2022-07-04T14:19:37;21.50;88.90
16825;DHT22;8529;48.108;-1.706;2022-07-04T14:22:04;21.50;88.50
16825;DHT22;8529;48.108;-1.706;2022-07-04T14:24:31;21.50;89.30
16825;DHT22;8529;48.108;-1.706;2022-07-04T14:26:58;21.50;88.10
16825;DHT22;8529;48.108;-1.706;2022-07-04T14:29:26;21.50;87.10
16825;DHT22;8529;48.108;-1.706;2022-07-04T14:31:53;21.40;87.10
16825;DHT22;8529;48.108;-1.706;2022-07-04T14:34:20;21.40;87.00
16825;DHT22;8529;48.108;-1.706;2022-07-04T14:36:48;21.40;87.40
16825;DHT22;8529;48.108;-1.706;2022-07-04T14:39:15;21.50;87.50
16825;DHT22;8529;48.108;-1.706;2022-07-04T14:41:42;21.50;87.00
16825;DHT22;8529;48.108;-1.706;2022-07-04T14:44:09;21.50;87.50
16825;DHT22;8529;48.108;-1.706;2022-07-04T14:46:36;21.50;87.70
16825;DHT22;8529;48.108;-1.706;2022-07-04T14:49:03;21.50;86.70
16825;DHT22;8529;48.108;-1.706;2022-07-04T14:51:29;21.50;87.10
16825;DHT22;8529;48.108;-1.706;2022-07-04T14:53:58;21.50;87.60
16825;DHT22;8529;48.108;-1.706;2022-07-04T14:56:25;21.50;87.00
16825;DHT22;8529;48.108;-1.706;2022-07-04T14:58:51;21.50;87.60
16825;DHT22;8529;48.108;-1.706;2022-07-04T15:01:18;21.40;87.20
16825;DHT22;8529;48.108;-1.706;2022-07-04T15:03:46;21.40;87.30
16825;DHT22;8529;48.108;-1.706;2022-07-04T15:06:13;21.40;87.80
16825;DHT22;8529;48.108;-1.706;2022-07-04T15:08:40;21.40;87.50
16825;DHT22;8529;48.108;-1.706;2022-07-04T15:11:08;21.30;87.50
16825;DHT22;8529;48.108;-1.706;2022-07-04T15:13:35;21.30;87.50
16825;DHT22;8529;48.108;-1.706;2022-07-04T15:16:02;21.30;87.90
16825;DHT22;8529;48.108;-1.706;2022-07-04T15:18:29;21.30;88.60
16825;DHT22;8529;48.108;-1.706;2022-07-04T15:20:56;21.40;88.30
16825;DHT22;8529;48.108;-1.706;2022-07-04T15:23:37;21.40;88.20
16825;DHT22;8529;48.108;-1.706;2022-07-04T15:26:23;21.40;88.60
16825;DHT22;8529;48.108;-1.706;2022-07-04T15:28:50;21.40;89.00
16825;DHT22;8529;48.108;-1.706;2022-07-04T15:31:17;21.40;88.20
16825;DHT22;8529;48.108;-1.706;2022-07-04T15:33:44;21.30;88.70
16825;DHT22;8529;48.108;-1.706;2022-07-04T15:36:11;21.30;88.80
16825;DHT22;8529;48.108;-1.706;2022-07-04T15:38:38;21.30;89.50
16825;DHT22;8529;48.108;-1.706;2022-07-04T15:41:05;21.30;89.40
16825;DHT22;8529;48.108;-1.706;2022-07-04T15:43:34;21.30;89.80
16825;DHT22;8529;48.108;-1.706;2022-07-04T15:46:01;21.30;89.80